LEZL/SVQ METAR and TAF weather

Enter ICAO airport designator
Station Type Date Time Source
LEZL METAR 2018/12/13 06:00 UTC NOAA

LEZL 130600Z 21011KT 160V260 8000 -RA BKN008 OVC015 15/14 Q1014 NOSIG


Station Type Date Time Source
LEZL Decoded METAR 2018/12/13 06:00 UTC NOAA

Sevilla / San Pablo, Spain (LEZL) 37-25N 005-54W 31M
Dec 13, 2018 - 01:00 AM EST / 2018.12.13 0600 UTC
Wind: from the SSW (210 degrees) at 13 MPH (11 KT) (direction variable):0
Visibility: 4 mile(s):0
Sky conditions: overcast
Weather: light rain
Temperature: 59 F (15 C)
Dew Point: 57 F (14 C)
Relative Humidity: 93%
Pressure (altimeter): 29.94 in. Hg (1014 hPa)
ob: LEZL 130600Z 21011KT 160V260 8000 -RA BKN008 OVC015 15/14 Q1014 NOSIG
cycle: 6

Station Type Date Time Source
LEZL TAF 2018/12/13 05:59 UTC NOAA

TAF
AMD LEZL 130550Z 1305/1403 24006KT 9999 BKN040 TX18/1314Z TN09/1306Z PROB40
TEMPO 1305/1318 4000 RA BKN014 PROB40
TEMPO 1306/1310 27020G30KT PROB40
TEMPO 1310/1318 27015G25KT


Example: see airport list